sensor_id;sensor_type;location;lat;lon;timestamp;P1;durP1;ratioP1;P2;durP2;ratioP2
22040;SDS011;11184;52.444;13.578;2023-11-21T00:02:41;6.35;;;5.80;;
22040;SDS011;11184;52.444;13.578;2023-11-21T00:05:26;6.10;;;5.50;;
22040;SDS011;11184;52.444;13.578;2023-11-21T00:08:10;6.88;;;6.25;;
22040;SDS011;11184;52.444;13.578;2023-11-21T00:10:55;7.00;;;6.38;;
22040;SDS011;11184;52.444;13.578;2023-11-21T00:13:40;7.97;;;7.18;;
22040;SDS011;11184;52.444;13.578;2023-11-21T00:16:24;8.13;;;7.32;;
22040;SDS011;11184;52.444;13.578;2023-11-21T00:19:09;9.23;;;8.35;;
22040;SDS011;11184;52.444;13.578;2023-11-21T00:21:54;13.50;;;11.02;;
22040;SDS011;11184;52.444;13.578;2023-11-21T00:24:38;11.27;;;9.93;;
22040;SDS011;11184;52.444;13.578;2023-11-21T00:27:23;16.42;;;12.15;;
22040;SDS011;11184;52.444;13.578;2023-11-21T00:30:08;13.48;;;11.75;;
22040;SDS011;11184;52.444;13.578;2023-11-21T00:32:53;17.17;;;13.70;;
22040;SDS011;11184;52.444;13.578;2023-11-21T00:35:38;22.55;;;15.30;;
22040;SDS011;11184;52.444;13.578;2023-11-21T00:38:22;26.73;;;17.35;;
22040;SDS011;11184;52.444;13.578;2023-11-21T00:41:08;24.52;;;19.05;;
22040;SDS011;11184;52.444;13.578;2023-11-21T00:43:52;26.08;;;17.73;;
22040;SDS011;11184;52.444;13.578;2023-11-21T00:46:37;30.70;;;18.73;;
22040;SDS011;11184;52.444;13.578;2023-11-21T00:49:22;30.20;;;19.00;;
22040;SDS011;11184;52.444;13.578;2023-11-21T00:52:06;28.52;;;17.88;;
22040;SDS011;11184;52.444;13.578;2023-11-21T00:54:51;34.47;;;19.00;;
22040;SDS011;11184;52.444;13.578;2023-11-21T00:57:35;30.20;;;18.55;;
22040;SDS011;11184;52.444;13.578;2023-11-21T01:00:21;36.13;;;19.70;;
22040;SDS011;11184;52.444;13.578;2023-11-21T01:03:06;45.13;;;22.80;;
22040;SDS011;11184;52.444;13.578;2023-11-21T01:05:54;39.47;;;22.83;;
22040;SDS011;11184;52.444;13.578;2023-11-21T01:08:39;48.70;;;25.73;;
22040;SDS011;11184;52.444;13.578;2023-11-21T01:11:24;47.60;;;25.83;;
22040;SDS011;11184;52.444;13.578;2023-11-21T01:14:08;50.55;;;28.25;;
22040;SDS011;11184;52.444;13.578;2023-11-21T01:16:54;55.78;;;29.67;;
22040;SDS011;11184;52.444;13.578;2023-11-21T01:19:38;45.15;;;27.17;;
22040;SDS011;11184;52.444;13.578;2023-11-21T01:22:23;60.30;;;30.48;;
22040;SDS011;11184;52.444;13.578;2023-11-21T01:25:10;57.88;;;30.52;;
22040;SDS011;11184;52.444;13.578;2023-11-21T01:27:55;70.55;;;32.00;;
22040;SDS011;11184;52.444;13.578;2023-11-21T01:30:40;57.38;;;30.25;;
22040;SDS011;11184;52.444;13.578;2023-11-21T01:33:25;58.45;;;29.48;;
22040;SDS011;11184;52.444;13.578;2023-11-21T01:36:09;65.38;;;30.08;;
22040;SDS011;11184;52.444;13.578;2023-11-21T01:38:54;61.55;;;31.00;;
22040;SDS011;11184;52.444;13.578;2023-11-21T01:41:42;53.20;;;29.13;;
22040;SDS011;11184;52.444;13.578;2023-11-21T01:44:30;57.92;;;29.33;;
22040;SDS011;11184;52.444;13.578;2023-11-21T01:47:15;57.40;;;32.92;;
22040;SDS011;11184;52.444;13.578;2023-11-21T01:50:00;61.13;;;32.15;;
22040;SDS011;11184;52.444;13.578;2023-11-21T01:52:46;64.70;;;31.55;;
22040;SDS011;11184;52.444;13.578;2023-11-21T01:55:31;61.60;;;32.15;;
22040;SDS011;11184;52.444;13.578;2023-11-21T01:58:17;52.05;;;27.83;;
22040;SDS011;11184;52.444;13.578;2023-11-21T02:01:02;57.83;;;29.83;;
22040;SDS011;11184;52.444;13.578;2023-11-21T02:03:47;56.95;;;29.52;;
22040;SDS011;11184;52.444;13.578;2023-11-21T02:06:32;63.65;;;32.00;;
22040;SDS011;11184;52.444;13.578;2023-11-21T02:09:22;57.63;;;31.25;;
22040;SDS011;11184;52.444;13.578;2023-11-21T02:12:07;60.50;;;30.83;;
22040;SDS011;11184;52.444;13.578;2023-11-21T02:14:53;73.18;;;33.35;;
22040;SDS011;11184;52.444;13.578;2023-11-21T02:17:39;81.43;;;35.13;;
22040;SDS011;11184;52.444;13.578;2023-11-21T02:20:24;83.53;;;33.95;;
22040;SDS011;11184;52.444;13.578;2023-11-21T02:23:10;72.32;;;30.60;;
22040;SDS011;11184;52.444;13.578;2023-11-21T02:25:56;73.93;;;29.05;;
22040;SDS011;11184;52.444;13.578;2023-11-21T02:28:40;66.35;;;27.90;;
22040;SDS011;11184;52.444;13.578;2023-11-21T02:31:26;67.32;;;29.45;;
22040;SDS011;11184;52.444;13.578;2023-11-21T02:34:10;64.55;;;27.67;;
22040;SDS011;11184;52.444;13.578;2023-11-21T02:36:57;64.05;;;25.15;;
22040;SDS011;11184;52.444;13.578;2023-11-21T02:39:41;56.75;;;25.65;;
22040;SDS011;11184;52.444;13.578;2023-11-21T02:42:26;59.25;;;22.75;;
22040;SDS011;11184;52.444;13.578;2023-11-21T02:45:10;43.08;;;22.15;;
22040;SDS011;11184;52.444;13.578;2023-11-21T02:48:00;51.08;;;21.02;;
22040;SDS011;11184;52.444;13.578;2023-11-21T02:50:45;47.47;;;20.73;;
22040;SDS011;11184;52.444;13.578;2023-11-21T02:53:29;44.13;;;20.40;;
22040;SDS011;11184;52.444;13.578;2023-11-21T02:56:14;46.47;;;21.98;;
22040;SDS011;11184;52.444;13.578;2023-11-21T02:58:59;43.35;;;20.48;;
22040;SDS011;11184;52.444;13.578;2023-11-21T03:01:44;35.40;;;17.13;;
22040;SDS011;11184;52.444;13.578;2023-11-21T03:04:28;29.55;;;16.13;;
22040;SDS011;11184;52.444;13.578;2023-11-21T03:07:16;35.40;;;17.90;;
22040;SDS011;11184;52.444;13.578;2023-11-21T03:10:02;36.25;;;18.73;;
22040;SDS011;11184;52.444;13.578;2023-11-21T03:12:47;31.58;;;17.80;;
22040;SDS011;11184;52.444;13.578;2023-11-21T03:15:32;25.80;;;15.07;;
22040;SDS011;11184;52.444;13.578;2023-11-21T03:18:18;23.98;;;15.43;;
22040;SDS011;11184;52.444;13.578;2023-11-21T03:21:05;23.48;;;15.77;;
22040;SDS011;11184;52.444;13.578;2023-11-21T03:23:54;30.48;;;16.73;;
22040;SDS011;11184;52.444;13.578;2023-11-21T03:26:39;22.10;;;13.88;;
22040;SDS011;11184;52.444;13.578;2023-11-21T03:29:23;22.75;;;14.93;;
22040;SDS011;11184;52.444;13.578;2023-11-21T03:32:08;22.63;;;15.15;;
22040;SDS011;11184;52.444;13.578;2023-11-21T03:34:53;23.02;;;15.00;;
22040;SDS011;11184;52.444;13.578;2023-11-21T03:37:41;25.05;;;16.65;;
22040;SDS011;11184;52.444;13.578;2023-11-21T03:40:27;22.60;;;13.75;;
22040;SDS011;11184;52.444;13.578;2023-11-21T03:43:12;21.85;;;15.07;;
22040;SDS011;11184;52.444;13.578;2023-11-21T03:45:57;16.70;;;13.00;;
22040;SDS011;11184;52.444;13.578;2023-11-21T03:48:42;16.63;;;12.68;;
22040;SDS011;11184;52.444;13.578;2023-11-21T03:51:27;17.45;;;13.65;;
22040;SDS011;11184;52.444;13.578;2023-11-21T03:54:11;14.57;;;12.27;;
22040;SDS011;11184;52.444;13.578;2023-11-21T03:56:57;15.95;;;14.15;;
22040;SDS011;11184;52.444;13.578;2023-11-21T03:59:42;12.90;;;11.55;;
22040;SDS011;11184;52.444;13.578;2023-11-21T04:02:27;12.98;;;11.60;;
22040;SDS011;11184;52.444;13.578;2023-11-21T04:05:13;11.73;;;10.52;;
22040;SDS011;11184;52.444;13.578;2023-11-21T04:07:57;12.43;;;9.60;;
22040;SDS011;11184;52.444;13.578;2023-11-21T04:10:42;12.75;;;11.35;;
22040;SDS011;11184;52.444;13.578;2023-11-21T04:13:27;12.35;;;9.60;;
22040;SDS011;11184;52.444;13.578;2023-11-21T04:16:11;10.85;;;9.05;;
22040;SDS011;11184;52.444;13.578;2023-11-21T04:18:56;10.32;;;9.38;;
22040;SDS011;11184;52.444;13.578;2023-11-21T04:21:41;10.80;;;9.30;;
22040;SDS011;11184;52.444;13.578;2023-11-21T04:24:26;9.77;;;8.77;;
22040;SDS011;11184;52.444;13.578;2023-11-21T04:27:10;11.05;;;9.95;;
22040;SDS011;11184;52.444;13.578;2023-11-21T04:29:56;10.15;;;9.10;;
22040;SDS011;11184;52.444;13.578;2023-11-21T04:32:41;10.18;;;9.25;;
22040;SDS011;11184;52.444;13.578;2023-11-21T04:35:26;11.15;;;10.07;;
22040;SDS011;11184;52.444;13.578;2023-11-21T04:38:11;10.75;;;9.57;;
22040;SDS011;11184;52.444;13.578;2023-11-21T04:40:55;10.43;;;9.43;;
22040;SDS011;11184;52.444;13.578;2023-11-21T04:43:40;15.55;;;10.13;;
22040;SDS011;11184;52.444;13.578;2023-11-21T04:46:26;12.35;;;9.93;;
22040;SDS011;11184;52.444;13.578;2023-11-21T04:49:11;11.65;;;9.35;;
22040;SDS011;11184;52.444;13.578;2023-11-21T04:51:55;11.13;;;10.02;;
22040;SDS011;11184;52.444;13.578;2023-11-21T04:54:40;9.27;;;8.32;;
22040;SDS011;11184;52.444;13.578;2023-11-21T04:57:25;9.98;;;8.93;;
22040;SDS011;11184;52.444;13.578;2023-11-21T05:00:10;12.82;;;9.70;;
22040;SDS011;11184;52.444;13.578;2023-11-21T05:02:55;10.65;;;8.45;;
22040;SDS011;11184;52.444;13.578;2023-11-21T05:05:39;8.32;;;7.40;;
22040;SDS011;11184;52.444;13.578;2023-11-21T05:08:24;9.73;;;8.73;;
22040;SDS011;11184;52.444;13.578;2023-11-21T05:11:09;9.60;;;8.63;;
22040;SDS011;11184;52.444;13.578;2023-11-21T05:13:54;12.15;;;9.02;;
22040;SDS011;11184;52.444;13.578;2023-11-21T05:16:40;10.82;;;9.73;;
22040;SDS011;11184;52.444;13.578;2023-11-21T05:19:25;10.88;;;8.43;;
22040;SDS011;11184;52.444;13.578;2023-11-21T05:22:11;9.55;;;8.55;;
22040;SDS011;11184;52.444;13.578;2023-11-21T05:24:55;9.23;;;8.32;;
22040;SDS011;11184;52.444;13.578;2023-11-21T05:27:40;8.55;;;7.68;;
22040;SDS011;11184;52.444;13.578;2023-11-21T05:30:24;7.60;;;6.72;;
22040;SDS011;11184;52.444;13.578;2023-11-21T05:33:09;8.80;;;7.97;;
22040;SDS011;11184;52.444;13.578;2023-11-21T05:35:53;6.40;;;5.80;;
22040;SDS011;11184;52.444;13.578;2023-11-21T05:38:38;7.70;;;6.90;;
22040;SDS011;11184;52.444;13.578;2023-11-21T05:41:23;8.55;;;6.75;;
22040;SDS011;11184;52.444;13.578;2023-11-21T05:44:07;7.05;;;6.35;;
22040;SDS011;11184;52.444;13.578;2023-11-21T05:46:52;7.38;;;6.65;;
22040;SDS011;11184;52.444;13.578;2023-11-21T05:49:37;6.55;;;5.95;;
22040;SDS011;11184;52.444;13.578;2023-11-21T05:52:22;7.57;;;5.43;;
22040;SDS011;11184;52.444;13.578;2023-11-21T05:55:07;6.32;;;5.85;;
22040;SDS011;11184;52.444;13.578;2023-11-21T05:57:51;6.63;;;5.97;;
22040;SDS011;11184;52.444;13.578;2023-11-21T06:00:36;7.40;;;6.00;;
22040;SDS011;11184;52.444;13.578;2023-11-21T06:03:21;9.55;;;6.78;;
22040;SDS011;11184;52.444;13.578;2023-11-21T06:06:07;8.70;;;7.03;;
22040;SDS011;11184;52.444;13.578;2023-11-21T06:08:51;7.43;;;6.65;;
22040;SDS011;11184;52.444;13.578;2023-11-21T06:11:36;6.80;;;6.20;;
22040;SDS011;11184;52.444;13.578;2023-11-21T06:14:20;6.80;;;6.03;;
22040;SDS011;11184;52.444;13.578;2023-11-21T06:17:05;9.10;;;8.27;;
22040;SDS011;11184;52.444;13.578;2023-11-21T06:19:53;7.10;;;6.03;;
22040;SDS011;11184;52.444;13.578;2023-11-21T06:22:38;7.65;;;6.50;;
22040;SDS011;11184;52.444;13.578;2023-11-21T06:25:24;7.07;;;6.38;;
22040;SDS011;11184;52.444;13.578;2023-11-21T06:28:08;8.50;;;7.75;;
22040;SDS011;11184;52.444;13.578;2023-11-21T06:30:53;7.25;;;6.50;;
22040;SDS011;11184;52.444;13.578;2023-11-21T06:33:38;8.10;;;7.00;;
22040;SDS011;11184;52.444;13.578;2023-11-21T06:36:23;8.88;;;8.05;;
22040;SDS011;11184;52.444;13.578;2023-11-21T06:39:07;8.40;;;7.57;;
22040;SDS011;11184;52.444;13.578;2023-11-21T06:41:52;7.47;;;6.78;;
22040;SDS011;11184;52.444;13.578;2023-11-21T06:44:37;7.63;;;6.93;;
22040;SDS011;11184;52.444;13.578;2023-11-21T06:47:25;6.95;;;6.35;;
22040;SDS011;11184;52.444;13.578;2023-11-21T06:50:11;7.70;;;7.00;;
22040;SDS011;11184;52.444;13.578;2023-11-21T06:52:56;7.95;;;7.32;;
22040;SDS011;11184;52.444;13.578;2023-11-21T06:55:40;7.35;;;6.68;;
22040;SDS011;11184;52.444;13.578;2023-11-21T06:58:25;7.90;;;7.10;;
22040;SDS011;11184;52.444;13.578;2023-11-21T07:01:10;8.75;;;7.85;;
22040;SDS011;11184;52.444;13.578;2023-11-21T07:03:54;8.30;;;7.50;;
22040;SDS011;11184;52.444;13.578;2023-11-21T07:06:39;8.40;;;7.60;;
22040;SDS011;11184;52.444;13.578;2023-11-21T07:09:23;7.57;;;6.82;;
22040;SDS011;11184;52.444;13.578;2023-11-21T07:12:09;6.80;;;6.13;;
22040;SDS011;11184;52.444;13.578;2023-11-21T07:14:57;7.45;;;6.75;;
22040;SDS011;11184;52.444;13.578;2023-11-21T07:17:41;7.90;;;7.20;;
22040;SDS011;11184;52.444;13.578;2023-11-21T07:20:27;7.13;;;6.38;;
22040;SDS011;11184;52.444;13.578;2023-11-21T07:23:13;7.88;;;6.47;;
22040;SDS011;11184;52.444;13.578;2023-11-21T07:25:59;6.32;;;5.72;;
22040;SDS011;11184;52.444;13.578;2023-11-21T07:28:43;7.40;;;6.32;;
22040;SDS011;11184;52.444;13.578;2023-11-21T07:31:29;6.55;;;5.55;;
22040;SDS011;11184;52.444;13.578;2023-11-21T07:34:14;12.57;;;7.20;;
22040;SDS011;11184;52.444;13.578;2023-11-21T07:36:59;11.88;;;6.72;;
22040;SDS011;11184;52.444;13.578;2023-11-21T07:39:44;9.65;;;7.18;;
22040;SDS011;11184;52.444;13.578;2023-11-21T07:42:30;13.32;;;7.72;;
22040;SDS011;11184;52.444;13.578;2023-11-21T07:45:15;12.63;;;7.63;;
22040;SDS011;11184;52.444;13.578;2023-11-21T07:48:00;20.40;;;8.93;;
22040;SDS011;11184;52.444;13.578;2023-11-21T07:50:47;16.23;;;9.77;;
22040;SDS011;11184;52.444;13.578;2023-11-21T07:53:31;13.05;;;9.27;;
22040;SDS011;11184;52.444;13.578;2023-11-21T07:56:16;19.13;;;10.13;;
22040;SDS011;11184;52.444;13.578;2023-11-21T07:59:01;19.27;;;11.25;;
22040;SDS011;11184;52.444;13.578;2023-11-21T08:01:46;15.80;;;9.40;;
22040;SDS011;11184;52.444;13.578;2023-11-21T08:04:30;20.10;;;11.75;;
22040;SDS011;11184;52.444;13.578;2023-11-21T08:07:17;23.83;;;10.07;;
22040;SDS011;11184;52.444;13.578;2023-11-21T08:10:02;14.85;;;11.27;;
22040;SDS011;11184;52.444;13.578;2023-11-21T08:12:48;26.60;;;12.07;;
22040;SDS011;11184;52.444;13.578;2023-11-21T08:15:35;23.90;;;11.13;;
22040;SDS011;11184;52.444;13.578;2023-11-21T08:18:20;17.98;;;11.43;;
22040;SDS011;11184;52.444;13.578;2023-11-21T08:21:05;20.92;;;11.30;;
22040;SDS011;11184;52.444;13.578;2023-11-21T08:23:50;17.58;;;12.70;;
22040;SDS011;11184;52.444;13.578;2023-11-21T08:26:39;20.17;;;12.18;;
22040;SDS011;11184;52.444;13.578;2023-11-21T08:29:23;26.00;;;13.57;;
22040;SDS011;11184;52.444;13.578;2023-11-21T08:32:08;19.90;;;12.57;;
22040;SDS011;11184;52.444;13.578;2023-11-21T08:34:53;20.77;;;12.25;;
22040;SDS011;11184;52.444;13.578;2023-11-21T08:37:38;14.73;;;10.82;;
22040;SDS011;11184;52.444;13.578;2023-11-21T08:40:22;18.17;;;10.57;;
22040;SDS011;11184;52.444;13.578;2023-11-21T08:43:07;13.15;;;9.45;;
22040;SDS011;11184;52.444;13.578;2023-11-21T08:45:51;12.07;;;7.35;;
22040;SDS011;11184;52.444;13.578;2023-11-21T08:48:36;9.00;;;5.45;;
22040;SDS011;11184;52.444;13.578;2023-11-21T08:51:24;8.43;;;6.35;;
22040;SDS011;11184;52.444;13.578;2023-11-21T08:54:09;7.78;;;4.45;;
22040;SDS011;11184;52.444;13.578;2023-11-21T08:56:54;6.38;;;4.03;;
22040;SDS011;11184;52.444;13.578;2023-11-21T08:59:38;9.02;;;3.97;;
22040;SDS011;11184;52.444;13.578;2023-11-21T09:02:25;7.43;;;4.50;;
22040;SDS011;11184;52.444;13.578;2023-11-21T09:05:10;7.82;;;3.50;;
22040;SDS011;11184;52.444;13.578;2023-11-21T09:07:55;5.57;;;3.65;;
22040;SDS011;11184;52.444;13.578;2023-11-21T09:10:40;4.82;;;3.78;;
22040;SDS011;11184;52.444;13.578;2023-11-21T09:13:26;5.07;;;3.65;;
22040;SDS011;11184;52.444;13.578;2023-11-21T09:16:11;4.50;;;3.60;;
22040;SDS011;11184;52.444;13.578;2023-11-21T09:18:55;8.70;;;4.05;;
22040;SDS011;11184;52.444;13.578;2023-11-21T09:21:40;4.55;;;3.60;;
22040;SDS011;11184;52.444;13.578;2023-11-21T09:24:24;6.75;;;4.43;;
22040;SDS011;11184;52.444;13.578;2023-11-21T09:27:09;4.82;;;4.32;;
22040;SDS011;11184;52.444;13.578;2023-11-21T09:29:54;7.07;;;4.38;;
22040;SDS011;11184;52.444;13.578;2023-11-21T09:32:39;4.38;;;3.92;;
22040;SDS011;11184;52.444;13.578;2023-11-21T09:35:24;5.82;;;4.45;;
22040;SDS011;11184;52.444;13.578;2023-11-21T09:38:08;5.22;;;4.35;;
22040;SDS011;11184;52.444;13.578;2023-11-21T09:40:56;4.13;;;3.80;;
22040;SDS011;11184;52.444;13.578;2023-11-21T09:43:42;4.97;;;3.92;;
22040;SDS011;11184;52.444;13.578;2023-11-21T09:46:28;4.28;;;3.58;;
22040;SDS011;11184;52.444;13.578;2023-11-21T09:49:13;4.47;;;3.42;;
22040;SDS011;11184;52.444;13.578;2023-11-21T09:51:58;4.88;;;4.38;;
22040;SDS011;11184;52.444;13.578;2023-11-21T09:54:43;3.75;;;3.35;;
22040;SDS011;11184;52.444;13.578;2023-11-21T09:57:28;3.15;;;2.85;;
22040;SDS011;11184;52.444;13.578;2023-11-21T10:00:13;4.70;;;3.03;;
22040;SDS011;11184;52.444;13.578;2023-11-21T10:03:01;3.20;;;2.90;;
22040;SDS011;11184;52.444;13.578;2023-11-21T10:05:46;3.25;;;3.05;;
22040;SDS011;11184;52.444;13.578;2023-11-21T10:08:33;2.95;;;2.75;;
22040;SDS011;11184;52.444;13.578;2023-11-21T10:11:18;2.58;;;2.17;;
22040;SDS011;11184;52.444;13.578;2023-11-21T10:14:05;5.65;;;2.13;;
22040;SDS011;11184;52.444;13.578;2023-11-21T10:16:50;2.10;;;1.88;;
22040;SDS011;11184;52.444;13.578;2023-11-21T10:19:37;1.60;;;1.50;;
22040;SDS011;11184;52.444;13.578;2023-11-21T10:22:22;3.78;;;1.83;;
22040;SDS011;11184;52.444;13.578;2023-11-21T10:25:08;1.52;;;1.42;;
22040;SDS011;11184;52.444;13.578;2023-11-21T10:27:57;2.05;;;1.80;;
22040;SDS011;11184;52.444;13.578;2023-11-21T10:30:44;3.63;;;1.80;;
22040;SDS011;11184;52.444;13.578;2023-11-21T10:33:29;3.38;;;1.30;;
22040;SDS011;11184;52.444;13.578;2023-11-21T10:36:14;3.90;;;1.63;;
22040;SDS011;11184;52.444;13.578;2023-11-21T10:39:09;2.00;;;1.63;;
22040;SDS011;11184;52.444;13.578;2023-11-21T10:41:54;1.48;;;1.20;;
22040;SDS011;11184;52.444;13.578;2023-11-21T10:44:41;3.67;;;1.40;;
22040;SDS011;11184;52.444;13.578;2023-11-21T10:47:28;1.90;;;1.60;;
22040;SDS011;11184;52.444;13.578;2023-11-21T10:50:12;1.63;;;1.52;;
22040;SDS011;11184;52.444;13.578;2023-11-21T10:52:58;1.70;;;1.50;;
22040;SDS011;11184;52.444;13.578;2023-11-21T10:55:43;4.00;;;1.85;;
22040;SDS011;11184;52.444;13.578;2023-11-21T10:58:27;1.67;;;1.58;;
22040;SDS011;11184;52.444;13.578;2023-11-21T11:01:12;2.60;;;2.22;;
22040;SDS011;11184;52.444;13.578;2023-11-21T11:03:57;3.30;;;3.00;;
22040;SDS011;11184;52.444;13.578;2023-11-21T11:06:43;3.10;;;2.55;;
22040;SDS011;11184;52.444;13.578;2023-11-21T11:09:28;2.65;;;2.15;;
22040;SDS011;11184;52.444;13.578;2023-11-21T11:12:12;2.85;;;2.65;;
22040;SDS011;11184;52.444;13.578;2023-11-21T11:14:58;3.83;;;3.22;;
22040;SDS011;11184;52.444;13.578;2023-11-21T11:17:44;4.18;;;3.78;;
22040;SDS011;11184;52.444;13.578;2023-11-21T11:20:30;3.83;;;3.45;;
22040;SDS011;11184;52.444;13.578;2023-11-21T11:23:27;3.28;;;2.97;;
22040;SDS011;11184;52.444;13.578;2023-11-21T11:29:14;4.25;;;2.95;;
22040;SDS011;11184;52.444;13.578;2023-11-21T11:32:13;3.13;;;2.92;;
22040;SDS011;11184;52.444;13.578;2023-11-21T11:35:03;4.88;;;3.35;;
22040;SDS011;11184;52.444;13.578;2023-11-21T11:37:49;3.28;;;3.08;;
22040;SDS011;11184;52.444;13.578;2023-11-21T11:40:40;5.45;;;4.20;;
22040;SDS011;11184;52.444;13.578;2023-11-21T11:43:26;3.75;;;3.45;;
22040;SDS011;11184;52.444;13.578;2023-11-21T11:46:10;2.97;;;2.53;;
22040;SDS011;11184;52.444;13.578;2023-11-21T11:49:02;3.97;;;3.58;;
22040;SDS011;11184;52.444;13.578;2023-11-21T11:51:47;4.15;;;3.10;;
22040;SDS011;11184;52.444;13.578;2023-11-21T11:54:35;3.63;;;3.33;;
22040;SDS011;11184;52.444;13.578;2023-11-21T11:57:24;2.83;;;2.63;;
22040;SDS011;11184;52.444;13.578;2023-11-21T12:03:01;3.13;;;2.83;;
22040;SDS011;11184;52.444;13.578;2023-11-21T12:05:47;3.78;;;3.42;;
22040;SDS011;11184;52.444;13.578;2023-11-21T12:08:34;3.50;;;3.20;;
22040;SDS011;11184;52.444;13.578;2023-11-21T12:11:19;3.63;;;3.33;;
22040;SDS011;11184;52.444;13.578;2023-11-21T12:14:03;3.67;;;3.10;;
22040;SDS011;11184;52.444;13.578;2023-11-21T12:16:49;3.80;;;3.58;;
22040;SDS011;11184;52.444;13.578;2023-11-21T12:19:35;3.85;;;3.58;;
22040;SDS011;11184;52.444;13.578;2023-11-21T12:22:20;4.18;;;2.70;;
22040;SDS011;11184;52.444;13.578;2023-11-21T12:25:06;5.13;;;2.20;;
22040;SDS011;11184;52.444;13.578;2023-11-21T12:27:51;2.92;;;2.70;;
22040;SDS011;11184;52.444;13.578;2023-11-21T12:30:36;2.72;;;2.53;;
22040;SDS011;11184;52.444;13.578;2023-11-21T12:33:21;4.07;;;2.60;;
22040;SDS011;11184;52.444;13.578;2023-11-21T12:36:06;2.90;;;2.70;;
22040;SDS011;11184;52.444;13.578;2023-11-21T12:38:54;3.60;;;3.08;;
22040;SDS011;11184;52.444;13.578;2023-11-21T12:41:38;5.80;;;2.95;;
22040;SDS011;11184;52.444;13.578;2023-11-21T12:44:24;3.00;;;2.70;;
22040;SDS011;11184;52.444;13.578;2023-11-21T12:47:09;4.88;;;3.72;;
22040;SDS011;11184;52.444;13.578;2023-11-21T12:55:05;4.20;;;3.53;;
22040;SDS011;11184;52.444;13.578;2023-11-21T12:57:54;3.78;;;3.47;;
22040;SDS011;11184;52.444;13.578;2023-11-21T13:00:39;3.58;;;3.28;;
22040;SDS011;11184;52.444;13.578;2023-11-21T13:03:25;5.00;;;4.18;;
22040;SDS011;11184;52.444;13.578;2023-11-21T13:06:10;5.18;;;4.75;;
22040;SDS011;11184;52.444;13.578;2023-11-21T13:08:56;5.28;;;4.78;;
22040;SDS011;11184;52.444;13.578;2023-11-21T13:11:40;4.50;;;4.07;;
22040;SDS011;11184;52.444;13.578;2023-11-21T13:14:29;4.15;;;3.85;;
22040;SDS011;11184;52.444;13.578;2023-11-21T13:17:15;4.75;;;4.45;;
22040;SDS011;11184;52.444;13.578;2023-11-21T13:20:00;4.00;;;3.65;;
22040;SDS011;11184;52.444;13.578;2023-11-21T13:22:50;5.93;;;5.38;;
22040;SDS011;11184;52.444;13.578;2023-11-21T13:25:38;5.75;;;5.20;;
22040;SDS011;11184;52.444;13.578;2023-11-21T13:28:24;5.53;;;5.13;;
22040;SDS011;11184;52.444;13.578;2023-11-21T13:31:15;5.35;;;4.90;;
22040;SDS011;11184;52.444;13.578;2023-11-21T13:34:26;5.25;;;4.80;;
22040;SDS011;11184;52.444;13.578;2023-11-21T13:37:11;5.30;;;4.90;;
22040;SDS011;11184;52.444;13.578;2023-11-21T13:39:56;5.03;;;4.63;;
22040;SDS011;11184;52.444;13.578;2023-11-21T13:42:41;5.80;;;5.30;;
22040;SDS011;11184;52.444;13.578;2023-11-21T13:45:27;5.82;;;5.38;;
22040;SDS011;11184;52.444;13.578;2023-11-21T13:48:13;6.30;;;5.70;;
22040;SDS011;11184;52.444;13.578;2023-11-21T13:50:57;6.70;;;6.10;;
22040;SDS011;11184;52.444;13.578;2023-11-21T13:53:45;6.93;;;6.22;;
22040;SDS011;11184;52.444;13.578;2023-11-21T13:56:33;8.07;;;7.28;;
22040;SDS011;11184;52.444;13.578;2023-11-21T13:59:17;6.35;;;5.78;;
22040;SDS011;11184;52.444;13.578;2023-11-21T14:02:09;8.13;;;7.32;;
22040;SDS011;11184;52.444;13.578;2023-11-21T14:05:16;10.85;;;7.75;;
22040;SDS011;11184;52.444;13.578;2023-11-21T14:08:13;8.93;;;8.13;;
22040;SDS011;11184;52.444;13.578;2023-11-21T14:11:00;9.65;;;7.55;;
22040;SDS011;11184;52.444;13.578;2023-11-21T14:13:45;9.02;;;8.23;;
22040;SDS011;11184;52.444;13.578;2023-11-21T14:16:31;10.40;;;9.50;;
22040;SDS011;11184;52.444;13.578;2023-11-21T14:19:16;9.25;;;8.40;;
22040;SDS011;11184;52.444;13.578;2023-11-21T14:22:01;10.43;;;9.32;;
22040;SDS011;11184;52.444;13.578;2023-11-21T14:24:46;12.10;;;10.95;;
22040;SDS011;11184;52.444;13.578;2023-11-21T14:27:30;12.52;;;11.43;;
22040;SDS011;11184;52.444;13.578;2023-11-21T14:30:17;15.63;;;14.13;;
22040;SDS011;11184;52.444;13.578;2023-11-21T14:33:03;15.60;;;14.07;;
22040;SDS011;11184;52.444;13.578;2023-11-21T14:35:49;17.88;;;16.08;;
22040;SDS011;11184;52.444;13.578;2023-11-21T14:38:33;18.70;;;15.70;;
22040;SDS011;11184;52.444;13.578;2023-11-21T14:41:18;17.13;;;15.32;;
22040;SDS011;11184;52.444;13.578;2023-11-21T14:44:03;18.92;;;17.10;;
22040;SDS011;11184;52.444;13.578;2023-11-21T14:46:48;18.95;;;17.02;;
22040;SDS011;11184;52.444;13.578;2023-11-21T14:49:34;23.30;;;18.88;;
22040;SDS011;11184;52.444;13.578;2023-11-21T14:52:35;24.48;;;19.67;;
22040;SDS011;11184;52.444;13.578;2023-11-21T14:55:28;22.25;;;19.73;;
22040;SDS011;11184;52.444;13.578;2023-11-21T14:58:21;25.92;;;23.02;;
22040;SDS011;11184;52.444;13.578;2023-11-21T15:01:12;29.73;;;22.40;;
22040;SDS011;11184;52.444;13.578;2023-11-21T15:03:56;34.95;;;24.70;;
22040;SDS011;11184;52.444;13.578;2023-11-21T15:06:41;28.13;;;21.48;;
22040;SDS011;11184;52.444;13.578;2023-11-21T15:09:26;24.55;;;21.98;;
22040;SDS011;11184;52.444;13.578;2023-11-21T15:12:24;24.73;;;20.95;;
22040;SDS011;11184;52.444;13.578;2023-11-21T15:15:11;32.03;;;25.45;;
22040;SDS011;11184;52.444;13.578;2023-11-21T15:17:57;25.45;;;21.77;;
22040;SDS011;11184;52.444;13.578;2023-11-21T15:20:42;31.48;;;24.15;;
22040;SDS011;11184;52.444;13.578;2023-11-21T15:23:27;27.73;;;21.90;;
22040;SDS011;11184;52.444;13.578;2023-11-21T15:26:14;30.20;;;21.52;;
22040;SDS011;11184;52.444;13.578;2023-11-21T15:28:58;24.70;;;19.88;;
22040;SDS011;11184;52.444;13.578;2023-11-21T15:31:44;23.40;;;20.52;;
22040;SDS011;11184;52.444;13.578;2023-11-21T15:34:32;24.92;;;18.33;;
22040;SDS011;11184;52.444;13.578;2023-11-21T15:37:17;22.45;;;17.27;;
22040;SDS011;11184;52.444;13.578;2023-11-21T15:40:02;23.40;;;19.00;;
22040;SDS011;11184;52.444;13.578;2023-11-21T15:42:49;18.05;;;15.35;;
22040;SDS011;11184;52.444;13.578;2023-11-21T15:45:34;21.80;;;17.48;;
22040;SDS011;11184;52.444;13.578;2023-11-21T15:48:19;19.05;;;16.35;;
22040;SDS011;11184;52.444;13.578;2023-11-21T15:51:03;20.52;;;17.05;;
22040;SDS011;11184;52.444;13.578;2023-11-21T15:53:48;22.88;;;16.83;;
22040;SDS011;11184;52.444;13.578;2023-11-21T15:56:33;20.17;;;16.33;;
22040;SDS011;11184;52.444;13.578;2023-11-21T15:59:18;17.08;;;15.00;;
22040;SDS011;11184;52.444;13.578;2023-11-21T16:02:03;19.58;;;16.20;;
22040;SDS011;11184;52.444;13.578;2023-11-21T16:04:48;19.52;;;15.57;;
22040;SDS011;11184;52.444;13.578;2023-11-21T16:07:33;23.02;;;14.85;;
22040;SDS011;11184;52.444;13.578;2023-11-21T16:10:18;16.75;;;14.52;;
22040;SDS011;11184;52.444;13.578;2023-11-21T16:13:03;16.60;;;14.30;;
22040;SDS011;11184;52.444;13.578;2023-11-21T16:15:47;15.63;;;13.45;;
22040;SDS011;11184;52.444;13.578;2023-11-21T16:18:32;14.52;;;13.13;;
22040;SDS011;11184;52.444;13.578;2023-11-21T16:21:17;15.60;;;13.48;;
22040;SDS011;11184;52.444;13.578;2023-11-21T16:24:02;13.00;;;11.70;;